Time;durP1;ratioP1;P1;durP2;ratioP2;P2;SDS_P1;SDS_P2;PMS_P1;PMS_P2;Temp;Humidity;BMP_temperature;BMP_pressure;BME280_temperature;BME280_humidity;BME280_pressure;Samples;Min_cycle;Max_cycle;Signal;HPM_P1;HPM_P2
2023/07/13 00:00:59;;;;;;;6.03;5.43;;;16.40;99.90;;;;;;4997549;28;20473;-57
2023/07/13 00:03:27;;;;;;;5.40;4.90;;;16.40;99.90;;;;;;4999248;28;20578;-59
2023/07/13 00:06:02;;;;;;;5.97;5.47;;;16.40;99.90;;;;;;4999142;28;20559;-59
2023/07/13 00:08:33;;;;;;;5.63;5.03;;;16.30;99.90;;;;;;4998903;28;20660;-59
2023/07/13 00:11:03;;;;;;;5.57;5.13;;;16.30;99.90;;;;;;4995689;28;20554;-58
2023/07/13 00:13:31;;;;;;;5.63;5.13;;;16.30;99.90;;;;;;4987391;28;20940;-59
2023/07/13 00:16:00;;;;;;;5.67;5.10;;;16.30;99.90;;;;;;4990402;28;20497;-59
2023/07/13 00:18:29;;;;;;;6.67;5.13;;;16.30;99.90;;;;;;4991844;28;20515;-58
2023/07/13 00:21:05;;;;;;;5.03;4.30;;;16.20;99.90;;;;;;4991117;28;20472;-59
2023/07/13 00:23:33;;;;;;;5.33;4.83;;;16.20;99.90;;;;;;4994363;28;20492;-59
2023/07/13 00:26:03;;;;;;;6.30;5.70;;;16.10;99.90;;;;;;4990459;28;20468;-57
2023/07/13 00:28:32;;;;;;;9.87;5.50;;;16.10;99.90;;;;;;4990920;28;20487;-59
2023/07/13 00:31:00;;;;;;;6.50;5.43;;;16.10;99.90;;;;;;4992249;28;20491;-58
2023/07/13 00:33:28;;;;;;;6.00;5.40;;;16.10;99.90;;;;;;4992025;28;20488;-59
2023/07/13 00:35:57;;;;;;;9.27;5.57;;;16.10;99.90;;;;;;4992321;28;20489;-58
2023/07/13 00:38:25;;;;;;;5.90;5.13;;;16.10;99.90;;;;;;4994520;28;20580;-58
2023/07/13 00:40:53;;;;;;;5.30;4.80;;;16.00;99.90;;;;;;4991025;28;21089;-58
2023/07/13 00:43:24;;;;;;;5.57;5.07;;;16.00;99.90;;;;;;4993257;28;20501;-58
2023/07/13 00:46:22;;;;;;;5.87;4.83;;;15.90;99.90;;;;;;4995832;28;20552;-58
2023/07/13 00:48:51;;;;;;;5.60;5.10;;;15.90;99.90;;;;;;4988094;28;21322;-60
2023/07/13 00:51:28;;;;;;;6.63;4.90;;;15.90;99.90;;;;;;4990742;28;20953;-57
2023/07/13 00:53:59;;;;;;;5.47;5.03;;;15.90;99.90;;;;;;4994455;28;20493;-58
2023/07/13 00:56:28;;;;;;;5.50;5.00;;;15.80;99.90;;;;;;4995425;28;21077;-57
2023/07/13 00:59:00;;;;;;;5.20;4.70;;;15.80;99.90;;;;;;4990452;28;20476;-58
2023/07/13 01:01:28;;;;;;;5.23;4.80;;;15.80;99.90;;;;;;4996857;28;20565;-59
2023/07/13 01:03:56;;;;;;;4.93;4.53;;;15.80;99.90;;;;;;4994339;28;20492;-59
2023/07/13 01:06:25;;;;;;;5.10;4.60;;;15.80;99.90;;;;;;4991779;28;21466;-57
2023/07/13 01:08:53;;;;;;;6.30;4.70;;;15.70;99.90;;;;;;4995415;28;20548;-58
2023/07/13 01:11:22;;;;;;;5.20;4.80;;;15.70;99.90;;;;;;4992765;28;20507;-59
2023/07/13 01:13:50;;;;;;;9.80;4.70;;;15.70;99.90;;;;;;4989009;28;20529;-57
2023/07/13 01:16:26;;;;;;;4.97;4.57;;;15.60;99.90;;;;;;4989910;28;20495;-58
2023/07/13 01:18:57;;;;;;;5.00;4.60;;;15.60;99.90;;;;;;4993699;28;21066;-58
2023/07/13 01:21:27;;;;;;;4.80;4.40;;;15.60;99.90;;;;;;4996804;28;20525;-59
2023/07/13 01:23:55;;;;;;;5.17;4.77;;;15.60;99.90;;;;;;4995933;28;20495;-59
2023/07/13 01:26:23;;;;;;;4.80;4.40;;;15.60;99.90;;;;;;4996578;28;20464;-57
2023/07/13 01:28:51;;;;;;;4.80;4.40;;;15.60;99.90;;;;;;4992258;28;20969;-60
2023/07/13 01:31:19;;;;;;;4.73;4.33;;;15.60;99.90;;;;;;4986459;28;22112;-58
2023/07/13 01:33:47;;;;;;;4.83;4.43;;;15.60;99.90;;;;;;4983284;28;20497;-59
2023/07/13 01:36:15;;;;;;;5.07;4.67;;;15.60;99.90;;;;;;4997324;28;20579;-58
2023/07/13 01:38:44;;;;;;;6.33;4.63;;;15.60;99.90;;;;;;4991859;28;20490;-60
2023/07/13 01:41:13;;;;;;;5.23;4.73;;;15.50;99.90;;;;;;4998014;28;20482;-58
2023/07/13 01:43:41;;;;;;;6.20;5.00;;;15.60;99.90;;;;;;4991521;28;20528;-59
2023/07/13 01:46:08;;;;;;;5.30;4.90;;;15.60;99.90;;;;;;4994738;28;20851;-58
2023/07/13 01:48:43;;;;;;;6.80;6.20;;;15.60;99.90;;;;;;5000558;28;20944;-58
2023/07/13 01:51:12;;;;;;;5.60;5.20;;;15.60;99.90;;;;;;4992349;28;20571;-59
2023/07/13 01:53:40;;;;;;;6.20;5.60;;;15.60;99.90;;;;;;4999353;28;20566;-59
2023/07/13 01:56:09;;;;;;;6.50;5.83;;;15.60;99.90;;;;;;4999187;28;21000;-58
2023/07/13 01:58:38;;;;;;;5.53;5.03;;;15.70;99.90;;;;;;4993621;28;20503;-57
2023/07/13 02:01:06;;;;;;;6.20;5.70;;;15.70;99.90;;;;;;4997268;28;20559;-57
2023/07/13 02:03:34;;;;;;;5.70;5.20;;;15.70;99.90;;;;;;4995659;28;20587;-57
2023/07/13 02:06:02;;;;;;;6.27;5.77;;;15.70;99.90;;;;;;5001325;28;20478;-57
2023/07/13 02:08:31;;;;;;;5.70;5.27;;;15.70;99.90;;;;;;4996654;28;21961;-59
2023/07/13 02:10:59;;;;;;;6.20;5.70;;;15.60;99.90;;;;;;4999306;28;20559;-57
2023/07/13 02:13:29;;;;;;;5.97;5.47;;;15.60;99.90;;;;;;4995581;28;20530;-58
2023/07/13 02:15:56;;;;;;;6.00;5.60;;;15.50;99.90;;;;;;4996554;28;20471;-58
2023/07/13 02:18:25;;;;;;;6.60;6.10;;;15.50;99.90;;;;;;5000464;28;20512;-57
2023/07/13 02:20:52;;;;;;;5.50;5.10;;;15.50;99.90;;;;;;4999468;28;21292;-59
2023/07/13 02:23:21;;;;;;;5.73;5.43;;;15.50;99.90;;;;;;4993969;28;20488;-58
2023/07/13 02:25:49;;;;;;;6.30;5.83;;;15.50;99.90;;;;;;4998844;28;20490;-58
2023/07/13 02:28:17;;;;;;;6.03;5.63;;;15.40;99.90;;;;;;4995406;28;20498;-60
2023/07/13 02:30:46;;;;;;;6.20;5.70;;;15.40;99.90;;;;;;4991086;28;20498;-59
2023/07/13 02:33:14;;;;;;;7.70;6.30;;;15.40;99.90;;;;;;4990274;28;20497;-57
2023/07/13 02:35:42;;;;;;;5.53;5.10;;;15.40;99.90;;;;;;4992431;28;20849;-57
2023/07/13 02:38:10;;;;;;;6.40;5.93;;;15.40;99.90;;;;;;4994203;28;20496;-58
2023/07/13 02:40:38;;;;;;;6.20;5.60;;;15.40;99.90;;;;;;4989686;28;20572;-59
2023/07/13 02:43:06;;;;;;;6.57;6.07;;;15.40;99.90;;;;;;4996527;28;21436;-59
2023/07/13 02:45:34;;;;;;;6.33;5.83;;;15.40;99.90;;;;;;4998519;28;20464;-58
2023/07/13 02:48:04;;;;;;;5.90;5.50;;;15.30;99.90;;;;;;4998035;28;20511;-59
2023/07/13 02:50:32;;;;;;;6.47;5.87;;;15.30;99.90;;;;;;4995148;28;20476;-58
2023/07/13 02:53:00;;;;;;;6.30;5.77;;;15.30;99.90;;;;;;4990604;28;21035;-57
2023/07/13 02:55:28;;;;;;;7.07;6.57;;;15.30;99.90;;;;;;4993763;28;20568;-60
2023/07/13 02:57:56;;;;;;;6.43;5.93;;;15.30;99.90;;;;;;4990066;28;20501;-57
2023/07/13 03:00:24;;;;;;;6.70;6.10;;;15.20;99.90;;;;;;4990550;28;21008;-58
2023/07/13 03:02:52;;;;;;;6.00;5.50;;;15.20;99.90;;;;;;4993351;28;20555;-60
2023/07/13 03:05:22;;;;;;;7.33;6.73;;;15.30;99.90;;;;;;4998993;28;20592;-59
2023/07/13 03:07:50;;;;;;;6.77;6.20;;;15.20;99.90;;;;;;4993652;28;21275;-58
2023/07/13 03:10:18;;;;;;;6.27;5.77;;;15.20;99.90;;;;;;4996548;28;20477;-58
2023/07/13 03:12:46;;;;;;;6.60;6.10;;;15.20;99.90;;;;;;4996815;28;20473;-58
2023/07/13 03:15:14;;;;;;;6.30;5.80;;;15.20;99.90;;;;;;4997656;28;20474;-59
2023/07/13 03:17:42;;;;;;;6.77;6.27;;;15.20;99.90;;;;;;4990825;28;21035;-58
2023/07/13 03:20:10;;;;;;;7.27;6.70;;;15.20;99.90;;;;;;4997833;28;20495;-58
2023/07/13 03:22:41;;;;;;;7.57;6.07;;;15.20;99.90;;;;;;4994223;28;20477;-59
2023/07/13 03:25:10;;;;;;;6.20;5.80;;;15.20;99.90;;;;;;4994271;28;20464;-58
2023/07/13 03:27:38;;;;;;;7.10;6.60;;;15.20;99.90;;;;;;4994269;28;20579;-60
2023/07/13 03:30:07;;;;;;;6.53;6.07;;;15.20;99.90;;;;;;4993232;28;20472;-60
2023/07/13 03:32:35;;;;;;;6.97;6.33;;;15.20;99.90;;;;;;4994761;28;20480;-57
2023/07/13 03:35:04;;;;;;;6.33;5.90;;;15.20;99.90;;;;;;4998956;28;20544;-59
2023/07/13 03:37:32;;;;;;;6.40;5.97;;;15.20;99.90;;;;;;4994909;28;20480;-56
2023/07/13 03:40:01;;;;;;;6.07;5.57;;;15.20;99.90;;;;;;4997632;28;20497;-59
2023/07/13 03:42:29;;;;;;;6.73;6.17;;;15.20;99.90;;;;;;4995463;28;20544;-58
2023/07/13 03:44:57;;;;;;;6.57;6.07;;;15.20;99.90;;;;;;4993804;28;20493;-59
2023/07/13 03:47:25;;;;;;;7.20;6.50;;;15.20;99.90;;;;;;4996987;28;20868;-58
2023/07/13 03:49:53;;;;;;;6.30;5.90;;;15.20;99.90;;;;;;4997064;28;20469;-58
2023/07/13 03:52:21;;;;;;;7.07;6.47;;;15.20;99.90;;;;;;4989340;28;20471;-57
2023/07/13 03:54:49;;;;;;;7.40;6.70;;;15.20;99.90;;;;;;4998102;28;20483;-59
2023/07/13 03:57:19;;;;;;;7.13;6.50;;;15.20;99.90;;;;;;5000214;28;20579;-58
2023/07/13 03:59:47;;;;;;;7.03;6.43;;;15.20;99.90;;;;;;4994856;28;21413;-58
2023/07/13 04:02:15;;;;;;;6.00;5.37;;;15.20;99.90;;;;;;4989094;28;20472;-59
2023/07/13 04:04:43;;;;;;;6.50;6.00;;;15.20;99.90;;;;;;4997240;28;20528;-59
2023/07/13 04:07:12;;;;;;;6.80;6.20;;;15.20;99.90;;;;;;4994411;28;20493;-58
2023/07/13 04:09:40;;;;;;;6.47;5.87;;;15.20;99.90;;;;;;4996184;28;20492;-58
2023/07/13 04:12:08;;;;;;;6.40;5.80;;;15.20;99.90;;;;;;4997793;28;20493;-58
2023/07/13 04:14:38;;;;;;;6.60;6.00;;;15.20;99.90;;;;;;4995341;28;20864;-59
2023/07/13 04:17:07;;;;;;;6.10;5.50;;;15.30;99.90;;;;;;4987847;28;20598;-58
2023/07/13 04:19:35;;;;;;;6.23;5.40;;;15.30;99.90;;;;;;4987243;28;20998;-60
2023/07/13 04:22:03;;;;;;;6.03;5.53;;;15.30;99.90;;;;;;4991042;28;20472;-60
2023/07/13 04:24:31;;;;;;;11.23;5.83;;;15.30;99.90;;;;;;4997442;28;21092;-58
2023/07/13 04:27:00;;;;;;;6.17;5.53;;;15.30;99.90;;;;;;4998377;28;20539;-58
2023/07/13 04:29:28;;;;;;;6.10;5.57;;;15.30;99.90;;;;;;4990029;28;20472;-58
2023/07/13 04:31:57;;;;;;;5.97;5.37;;;15.30;99.90;;;;;;4993232;28;20978;-59
2023/07/13 04:34:26;;;;;;;6.70;6.10;;;15.30;99.90;;;;;;4994258;28;20496;-59
2023/07/13 04:36:54;;;;;;;5.80;5.20;;;15.20;99.90;;;;;;4989727;28;20481;-58
2023/07/13 04:39:22;;;;;;;6.20;5.63;;;15.20;99.90;;;;;;4987230;28;20506;-60
2023/07/13 04:41:49;;;;;;;6.50;5.20;;;15.20;99.90;;;;;;4990141;28;20488;-58
2023/07/13 04:44:17;;;;;;;6.80;5.73;;;15.30;99.90;;;;;;4994445;28;20494;-60
2023/07/13 04:46:45;;;;;;;6.10;5.60;;;15.40;99.90;;;;;;4993883;28;20494;-60
2023/07/13 04:49:15;;;;;;;7.80;5.20;;;15.40;99.90;;;;;;4993478;28;20475;-60
2023/07/13 04:51:43;;;;;;;6.13;5.53;;;15.50;99.90;;;;;;4987733;28;20483;-57
2023/07/13 04:54:11;;;;;;;6.40;5.63;;;15.50;99.90;;;;;;4999380;28;20499;-58
2023/07/13 04:56:39;;;;;;;5.47;5.13;;;15.60;99.90;;;;;;4992057;28;20543;-61
2023/07/13 04:59:07;;;;;;;6.17;5.53;;;15.60;99.90;;;;;;4990987;28;20492;-60
2023/07/13 05:01:35;;;;;;;8.77;6.50;;;15.70;99.90;;;;;;4993844;28;20476;-60
2023/07/13 05:04:03;;;;;;;8.67;5.53;;;15.70;99.90;;;;;;4994602;28;20503;-59
2023/07/13 05:06:32;;;;;;;8.33;5.63;;;15.80;99.90;;;;;;4998577;28;20476;-59
2023/07/13 05:09:00;;;;;;;6.10;5.60;;;15.70;99.90;;;;;;4991801;28;20475;-61
2023/07/13 05:11:28;;;;;;;5.53;5.07;;;15.80;99.90;;;;;;4992816;28;20475;-58
2023/07/13 05:13:56;;;;;;;7.13;5.90;;;15.80;99.90;;;;;;4992510;28;20500;-58
2023/07/13 05:16:24;;;;;;;6.17;5.17;;;15.90;99.90;;;;;;4994886;28;20480;-63
2023/07/13 05:18:52;;;;;;;7.40;5.60;;;15.90;99.90;;;;;;4996316;28;21290;-59
2023/07/13 05:21:21;;;;;;;6.50;5.90;;;16.00;99.90;;;;;;4995195;28;20472;-61
2023/07/13 05:23:50;;;;;;;5.83;5.30;;;16.10;99.90;;;;;;4993804;28;20523;-60
2023/07/13 05:26:20;;;;;;;6.10;5.50;;;16.20;99.90;;;;;;4998057;28;20478;-60
2023/07/13 05:28:48;;;;;;;10.13;6.37;;;16.20;99.90;;;;;;4997353;28;20535;-61
2023/07/13 05:31:16;;;;;;;7.40;5.93;;;16.30;99.90;;;;;;4991721;28;20486;-61
2023/07/13 05:33:44;;;;;;;9.00;5.93;;;16.40;99.90;;;;;;5000469;28;20492;-60
2023/07/13 05:36:12;;;;;;;8.37;5.60;;;16.50;99.90;;;;;;4998167;28;20479;-61
2023/07/13 05:38:40;;;;;;;6.60;5.90;;;16.60;99.90;;;;;;5000087;28;21108;-59
2023/07/13 05:41:09;;;;;;;10.97;5.33;;;16.70;99.90;;;;;;4993762;28;21048;-60
2023/07/13 05:43:38;;;;;;;6.47;5.70;;;16.70;99.90;;;;;;4995862;28;21289;-58
2023/07/13 05:46:06;;;;;;;7.07;5.53;;;16.60;99.90;;;;;;4993582;28;20956;-60
2023/07/13 05:48:34;;;;;;;8.63;6.40;;;16.70;99.90;;;;;;4992907;28;20560;-59
2023/07/13 05:51:02;;;;;;;7.27;6.37;;;16.60;99.90;;;;;;4992279;28;20563;-58
2023/07/13 05:53:30;;;;;;;11.20;7.17;;;16.60;99.90;;;;;;4994699;28;20582;-58
2023/07/13 05:55:58;;;;;;;8.53;6.30;;;16.50;99.90;;;;;;4998420;28;21097;-60
2023/07/13 05:58:31;;;;;;;9.63;6.97;;;16.50;99.90;;;;;;4989962;28;20499;-58
2023/07/13 06:01:01;;;;;;;8.40;5.50;;;16.60;99.90;;;;;;4988997;28;20555;-57
2023/07/13 06:03:29;;;;;;;8.90;6.10;;;16.60;99.90;;;;;;4995370;28;20540;-60
2023/07/13 06:06:00;;;;;;;10.37;6.33;;;16.70;99.90;;;;;;4993196;28;20493;-58
2023/07/13 06:08:28;;;;;;;6.00;5.50;;;16.80;99.90;;;;;;4995131;28;20520;-59
2023/07/13 06:11:03;;;;;;;6.73;6.00;;;16.80;99.90;;;;;;4992317;28;20476;-59
2023/07/13 06:13:33;;;;;;;11.77;6.20;;;16.80;99.90;;;;;;4990905;28;20546;-59
2023/07/13 06:16:04;;;;;;;8.83;5.80;;;16.80;99.90;;;;;;4990674;28;20526;-59
2023/07/13 06:18:32;;;;;;;8.70;6.47;;;16.80;99.90;;;;;;4994005;28;20499;-59
2023/07/13 06:21:00;;;;;;;9.47;6.53;;;16.80;99.90;;;;;;4993714;28;20523;-60
2023/07/13 06:23:28;;;;;;;9.00;6.10;;;16.80;99.90;;;;;;4994414;28;20945;-60
2023/07/13 06:25:56;;;;;;;7.33;5.50;;;16.80;99.90;;;;;;4994688;28;20555;-59
2023/07/13 06:28:24;;;;;;;7.50;5.60;;;16.80;99.90;;;;;;4997103;28;20488;-59
2023/07/13 06:30:53;;;;;;;7.70;5.47;;;16.80;99.90;;;;;;4994887;28;20569;-58
2023/07/13 06:33:21;;;;;;;10.57;6.73;;;16.80;99.90;;;;;;4996318;28;20500;-59
2023/07/13 06:35:49;;;;;;;7.53;5.57;;;16.80;99.90;;;;;;4990415;28;22055;-60
2023/07/13 06:38:18;;;;;;;5.77;5.27;;;16.90;99.90;;;;;;4999603;28;20534;-60
2023/07/13 06:40:46;;;;;;;8.43;6.63;;;16.90;99.90;;;;;;4993491;28;21237;-57
2023/07/13 06:43:14;;;;;;;9.57;5.73;;;16.90;99.90;;;;;;4998867;28;21219;-60
2023/07/13 06:45:45;;;;;;;7.40;5.50;;;16.90;99.90;;;;;;4989228;28;20473;-59
2023/07/13 06:48:15;;;;;;;5.73;5.13;;;17.00;99.90;;;;;;4992819;28;20542;-60
2023/07/13 06:50:43;;;;;;;7.40;5.97;;;17.00;99.90;;;;;;4988731;28;20555;-60
2023/07/13 06:53:12;;;;;;;10.03;5.30;;;17.10;99.90;;;;;;4994799;28;20533;-60
2023/07/13 06:55:41;;;;;;;8.13;7.30;;;17.20;99.90;;;;;;4995811;28;20478;-59
2023/07/13 06:58:09;;;;;;;9.07;5.30;;;17.20;99.90;;;;;;4995209;28;20600;-59
2023/07/13 07:00:37;;;;;;;9.30;5.60;;;17.30;99.90;;;;;;4987198;28;20529;-60
2023/07/13 07:03:05;;;;;;;7.00;5.70;;;17.30;99.90;;;;;;4992547;28;21021;-59
2023/07/13 07:05:35;;;;;;;9.00;5.70;;;17.30;99.90;;;;;;4996104;28;20854;-60
2023/07/13 07:08:03;;;;;;;7.60;5.83;;;17.20;99.90;;;;;;4987454;28;20496;-60
2023/07/13 07:10:32;;;;;;;7.70;4.87;;;17.20;99.90;;;;;;4986548;28;20473;-57
2023/07/13 07:13:00;;;;;;;5.83;5.20;;;17.20;99.90;;;;;;4991689;28;20503;-60
2023/07/13 07:15:28;;;;;;;9.77;5.20;;;17.30;99.90;;;;;;4988257;28;20487;-60
2023/07/13 07:17:56;;;;;;;5.73;4.80;;;17.30;99.90;;;;;;4991428;28;21143;-60
2023/07/13 07:20:24;;;;;;;7.47;5.23;;;17.40;99.90;;;;;;4991960;28;20511;-60
2023/07/13 07:22:53;;;;;;;8.40;5.20;;;17.50;99.90;;;;;;4991608;28;20788;-60
2023/07/13 07:25:21;;;;;;;8.47;5.07;;;17.50;99.90;;;;;;4993824;28;20522;-60
2023/07/13 07:27:49;;;;;;;6.93;4.33;;;17.50;99.90;;;;;;4997616;28;20582;-64
2023/07/13 07:30:20;;;;;;;7.10;4.43;;;17.60;99.90;;;;;;4987876;28;20477;-63
2023/07/13 07:32:51;;;;;;;7.30;4.43;;;17.60;99.90;;;;;;4998419;28;20475;-63
2023/07/13 07:35:24;;;;;;;10.13;4.73;;;17.60;99.90;;;;;;5000629;28;20475;-63
2023/07/13 07:37:53;;;;;;;7.10;4.00;;;17.60;99.90;;;;;;4996976;28;20526;-64
2023/07/13 07:40:22;;;;;;;7.73;4.20;;;17.70;99.90;;;;;;4990363;28;20488;-63
2023/07/13 07:42:53;;;;;;;7.20;4.17;;;17.90;99.90;;;;;;4970818;28;20473;-60
2023/07/13 07:45:22;;;;;;;8.63;5.80;;;18.00;99.90;;;;;;4970374;28;20893;-60
2023/07/13 07:47:50;;;;;;;8.27;5.37;;;18.00;99.90;;;;;;4973849;28;20748;-64
2023/07/13 07:50:19;;;;;;;8.43;5.13;;;18.10;99.90;;;;;;4967436;28;20512;-64
2023/07/13 07:52:47;;;;;;;10.10;8.07;;;18.20;99.90;;;;;;4971543;28;20484;-59
2023/07/13 07:55:17;;;;;;;27.07;24.13;;;18.30;99.90;;;;;;4977114;28;20543;-64
2023/07/13 07:57:48;;;;;;;19.57;16.03;;;18.40;99.90;;;;;;4972873;28;20627;-65
2023/07/13 08:00:19;;;;;;;24.67;22.27;;;18.40;99.90;;;;;;4973135;28;20934;-68
2023/07/13 08:02:50;;;;;;;56.50;50.57;;;18.50;99.90;;;;;;4995701;28;20556;-61
2023/07/13 08:05:21;;;;;;;15.23;13.73;;;18.60;99.90;;;;;;4994584;28;20503;-69
2023/07/13 08:08:09;;;;;;;46.63;42.17;;;18.70;99.90;;;;;;4994321;28;20499;-66
2023/07/13 08:10:38;;;;;;;16.20;14.60;;;18.80;99.90;;;;;;4984858;28;20473;-64
2023/07/13 08:13:06;;;;;;;15.27;13.70;;;18.90;99.90;;;;;;4991616;28;21090;-63
2023/07/13 08:15:38;;;;;;;13.93;12.50;;;18.90;99.90;;;;;;4995770;28;20561;-63
2023/07/13 08:18:07;;;;;;;14.77;13.27;;;19.00;99.90;;;;;;4993599;28;20571;-60
2023/07/13 08:20:38;;;;;;;9.63;7.43;;;19.10;99.90;;;;;;4994089;28;20500;-65
2023/07/13 08:23:06;;;;;;;8.87;7.60;;;19.20;99.90;;;;;;4995881;28;20507;-65
2023/07/13 08:25:35;;;;;;;11.87;9.73;;;19.30;99.90;;;;;;4997300;28;20469;-65
2023/07/13 08:28:05;;;;;;;7.50;6.60;;;19.40;99.90;;;;;;4987115;28;20488;-65
2023/07/13 08:30:33;;;;;;;12.57;8.77;;;19.50;99.90;;;;;;4991496;28;21049;-66
2023/07/13 08:33:01;;;;;;;6.90;4.50;;;19.70;99.90;;;;;;4995294;28;20923;-65
2023/07/13 08:35:29;;;;;;;5.53;4.70;;;19.80;99.90;;;;;;4993224;28;20500;-62
2023/07/13 08:37:58;;;;;;;6.33;3.87;;;19.90;99.90;;;;;;4991773;28;20573;-60
2023/07/13 08:40:28;;;;;;;6.13;4.03;;;19.80;99.90;;;;;;4988599;28;20982;-61
2023/07/13 08:42:59;;;;;;;7.60;5.50;;;19.70;99.90;;;;;;4993967;28;20587;-64
2023/07/13 08:45:39;;;;;;;5.53;3.40;;;19.70;99.90;;;;;;4994868;28;20464;-60
2023/07/13 08:48:13;;;;;;;7.03;3.40;;;19.60;99.90;;;;;;4993719;28;20491;-63
2023/07/13 08:50:50;;;;;;;4.63;3.80;;;19.70;99.90;;;;;;4994162;28;20986;-62
2023/07/13 08:53:35;;;;;;;3.53;3.23;;;19.60;99.90;;;;;;4988491;28;20488;-62
2023/07/13 08:56:04;;;;;;;5.37;3.63;;;19.60;99.90;;;;;;4990099;28;20508;-61
2023/07/13 08:58:34;;;;;;;5.40;3.30;;;19.60;99.90;;;;;;4992897;28;20506;-64
2023/07/13 09:01:14;;;;;;;7.43;3.60;;;19.60;99.90;;;;;;4985743;28;21019;-63
2023/07/13 09:03:47;;;;;;;4.90;3.77;;;19.60;99.90;;;;;;4993116;28;21014;-65
2023/07/13 09:06:16;;;;;;;7.10;3.60;;;19.60;99.90;;;;;;4999004;28;21021;-63
2023/07/13 09:08:56;;;;;;;6.57;3.47;;;19.60;99.90;;;;;;4996642;28;20484;-67
2023/07/13 09:11:37;;;;;;;6.83;3.87;;;19.60;99.90;;;;;;4991197;28;20464;-68
2023/07/13 09:14:20;;;;;;;3.90;3.00;;;19.70;99.90;;;;;;4992439;28;20492;-67
2023/07/13 09:16:51;;;;;;;5.60;3.23;;;19.90;99.90;;;;;;4996578;28;20486;-67
2023/07/13 09:19:25;;;;;;;4.13;3.37;;;20.10;99.90;;;;;;4995666;28;20527;-67
2023/07/13 09:21:56;;;;;;;4.03;3.00;;;20.20;99.90;;;;;;4995350;28;20484;-67
2023/07/13 09:24:36;;;;;;;4.40;3.20;;;20.10;99.90;;;;;;4989067;28;20558;-63
2023/07/13 09:27:17;;;;;;;4.80;3.00;;;20.20;99.90;;;;;;4993063;28;20923;-65
2023/07/13 09:29:50;;;;;;;4.50;3.30;;;20.20;99.90;;;;;;4997098;28;20468;-64
2023/07/13 09:32:24;;;;;;;3.50;3.00;;;20.30;99.90;;;;;;4994686;28;21087;-63
2023/07/13 09:34:54;;;;;;;4.30;3.50;;;20.30;99.90;;;;;;4995248;28;20492;-67
2023/07/13 09:37:24;;;;;;;6.53;3.27;;;20.30;99.90;;;;;;4988295;28;20487;-60
2023/07/13 09:39:54;;;;;;;6.47;3.60;;;20.30;99.90;;;;;;4986663;28;20603;-59
2023/07/13 09:42:23;;;;;;;7.37;3.50;;;20.30;99.90;;;;;;4991279;28;20516;-60
2023/07/13 09:44:55;;;;;;;4.50;3.30;;;20.30;99.90;;;;;;4993403;28;20579;-60
2023/07/13 09:47:27;;;;;;;6.67;3.97;;;20.40;99.90;;;;;;4984709;28;20584;-59
2023/07/13 09:49:58;;;;;;;4.70;3.47;;;20.50;99.90;;;;;;4986617;28;20477;-59
2023/07/13 09:52:42;;;;;;;5.90;3.50;;;20.60;99.90;;;;;;4974477;28;20471;-60
2023/07/13 09:55:26;;;;;;;3.90;3.50;;;20.50;99.90;;;;;;4986364;28;20492;-60
2023/07/13 09:57:54;;;;;;;4.53;3.43;;;20.60;99.90;;;;;;4990022;28;20624;-59
2023/07/13 10:00:25;;;;;;;3.90;3.60;;;20.70;99.90;;;;;;4986167;28;20583;-59
2023/07/13 10:03:06;;;;;;;4.40;3.17;;;20.90;99.90;;;;;;4990160;28;20473;-60
2023/07/13 10:05:39;;;;;;;6.13;3.57;;;21.00;99.90;;;;;;4991510;28;20526;-59
2023/07/13 10:08:18;;;;;;;4.90;3.10;;;21.10;99.90;;;;;;4996603;28;20575;-60
2023/07/13 10:10:46;;;;;;;5.00;3.43;;;21.20;99.90;;;;;;4988737;28;20483;-60
2023/07/13 10:13:31;;;;;;;5.20;3.50;;;21.30;99.90;;;;;;4989257;28;20576;-60
2023/07/13 10:16:00;;;;;;;3.43;3.13;;;21.40;99.90;;;;;;4988580;28;20634;-60
2023/07/13 10:18:32;;;;;;;5.97;3.20;;;21.40;99.90;;;;;;4988235;28;20906;-59
2023/07/13 10:21:13;;;;;;;3.67;3.00;;;21.30;99.90;;;;;;4999442;28;20545;-60
2023/07/13 10:23:51;;;;;;;5.40;3.07;;;21.30;99.90;;;;;;4995090;28;21035;-60
2023/07/13 10:26:24;;;;;;;3.10;2.80;;;21.40;99.90;;;;;;4995268;28;20513;-60
2023/07/13 10:28:56;;;;;;;4.27;3.00;;;21.40;99.90;;;;;;4996460;28;20563;-60
2023/07/13 10:31:24;;;;;;;6.23;3.00;;;21.50;99.90;;;;;;4998606;28;20596;-60
2023/07/13 10:33:54;;;;;;;3.50;3.00;;;21.60;99.90;;;;;;4993395;28;20583;-59
2023/07/13 10:36:31;;;;;;;3.53;2.90;;;21.60;99.90;;;;;;4992704;28;20475;-57
2023/07/13 10:39:03;;;;;;;4.63;3.07;;;21.50;99.90;;;;;;4990343;28;20488;-57
2023/07/13 10:41:34;;;;;;;2.97;2.63;;;21.60;99.90;;;;;;4988329;28;20967;-58
2023/07/13 10:44:04;;;;;;;4.13;3.03;;;21.70;99.90;;;;;;4988499;28;20567;-59
2023/07/13 10:46:33;;;;;;;3.10;2.60;;;21.90;99.90;;;;;;4993123;28;20473;-58
2023/07/13 10:49:06;;;;;;;4.47;2.90;;;22.00;99.90;;;;;;4997254;28;20807;-58
2023/07/13 10:51:35;;;;;;;3.30;2.57;;;22.10;99.90;;;;;;4994875;28;20571;-58
2023/07/13 10:54:17;;;;;;;4.23;2.80;;;22.20;99.90;;;;;;4991891;28;21025;-58
2023/07/13 10:56:50;;;;;;;3.50;2.60;;;22.20;99.90;;;;;;4989690;28;21036;-59
2023/07/13 10:59:25;;;;;;;3.20;2.50;;;22.30;99.90;;;;;;4988390;28;20485;-59
2023/07/13 11:01:59;;;;;;;4.60;2.67;;;22.30;99.90;;;;;;4984353;28;20551;-57
2023/07/13 11:04:40;;;;;;;3.53;2.40;;;22.30;99.90;;;;;;4987050;28;20591;-57
2023/07/13 11:07:19;;;;;;;3.80;2.63;;;22.30;99.90;;;;;;4989020;28;20543;-57
2023/07/13 11:09:51;;;;;;;3.70;2.80;;;22.50;99.90;;;;;;4989719;28;20551;-57
2023/07/13 11:12:51;;;;;;;4.10;2.63;;;22.50;99.90;;;;;;4983019;28;20577;-57
2023/07/13 11:15:33;;;;;;;2.77;2.50;;;22.60;99.90;;;;;;4992993;28;20519;-56
2023/07/13 11:18:05;;;;;;;2.60;2.40;;;22.40;99.90;;;;;;4989737;28;20545;-58
2023/07/13 11:20:40;;;;;;;3.10;2.47;;;22.30;99.90;;;;;;4983560;28;20758;-57
2023/07/13 11:23:20;;;;;;;3.97;2.73;;;22.40;99.90;;;;;;4989768;28;22350;-57
2023/07/13 11:25:48;;;;;;;6.23;2.90;;;22.60;99.90;;;;;;4984407;28;20566;-56
2023/07/13 11:28:22;;;;;;;2.70;2.50;;;22.50;99.90;;;;;;4982866;28;20484;-56
2023/07/13 11:31:02;;;;;;;3.30;2.40;;;22.60;99.90;;;;;;4991821;28;20485;-56
2023/07/13 11:33:51;;;;;;;4.10;2.60;;;22.60;99.90;;;;;;4988537;28;20519;-57
2023/07/13 11:36:23;;;;;;;2.80;2.30;;;22.60;99.90;;;;;;4988880;28;20472;-57
2023/07/13 11:38:59;;;;;;;4.03;2.57;;;22.50;99.90;;;;;;4990972;28;20579;-57
2023/07/13 11:41:32;;;;;;;3.40;2.47;;;22.50;99.90;;;;;;4988506;28;20523;-54
2023/07/13 11:44:08;;;;;;;2.53;2.30;;;22.50;99.90;;;;;;4992550;28;20591;-55
2023/07/13 11:46:36;;;;;;;5.27;2.40;;;22.60;99.90;;;;;;4993714;28;20510;-55
2023/07/13 11:49:06;;;;;;;3.47;2.53;;;22.60;99.90;;;;;;4993405;28;20473;-55
2023/07/13 11:51:37;;;;;;;3.90;2.43;;;22.70;99.90;;;;;;4988193;28;20473;-56
2023/07/13 11:54:14;;;;;;;2.77;2.40;;;22.70;99.90;;;;;;4984355;28;20551;-55
2023/07/13 11:56:43;;;;;;;4.50;2.40;;;22.70;99.90;;;;;;4987503;28;22852;-55
2023/07/13 11:59:13;;;;;;;2.30;2.10;;;22.60;99.90;;;;;;4983974;28;20922;-55
2023/07/13 12:01:47;;;;;;;2.43;2.23;;;22.50;99.90;;;;;;4986014;28;20501;-54
2023/07/13 12:04:23;;;;;;;2.87;2.63;;;22.40;99.90;;;;;;4983500;28;21016;-54
2023/07/13 12:06:59;;;;;;;3.37;2.20;;;22.20;99.90;;;;;;4981858;28;20484;-55
2023/07/13 12:09:29;;;;;;;3.03;2.30;;;22.20;99.90;;;;;;4990300;28;20555;-54
2023/07/13 12:12:00;;;;;;;3.20;2.30;;;22.20;99.90;;;;;;4990813;28;20523;-55
2023/07/13 12:14:29;;;;;;;4.57;2.63;;;22.10;99.90;;;;;;4990248;28;20496;-54
2023/07/13 12:16:57;;;;;;;5.30;2.30;;;22.10;99.90;;;;;;4990529;28;20489;-55
2023/07/13 12:19:28;;;;;;;6.70;2.70;;;22.00;99.90;;;;;;4988689;28;20464;-55
2023/07/13 12:21:59;;;;;;;4.60;2.83;;;21.80;99.90;;;;;;4994575;28;20583;-55
2023/07/13 12:24:28;;;;;;;5.80;2.70;;;20.90;99.90;;;;;;4988767;28;20516;-55
2023/07/13 12:27:01;;;;;;;3.80;3.10;;;20.40;99.90;;;;;;4993167;28;20579;-58
2023/07/13 12:29:29;;;;;;;5.13;3.13;;;19.90;99.90;;;;;;4987693;28;20520;-57
2023/07/13 12:31:57;;;;;;;4.30;3.17;;;19.60;99.90;;;;;;4990003;28;20484;-55
2023/07/13 12:34:27;;;;;;;3.50;2.97;;;19.30;99.90;;;;;;4986250;28;21075;-55
2023/07/13 12:36:57;;;;;;;4.23;2.60;;;18.90;99.90;;;;;;4982225;28;20484;-55
2023/07/13 12:39:35;;;;;;;2.77;2.50;;;18.60;99.90;;;;;;4991383;28;20853;-57
2023/07/13 12:42:23;;;;;;;5.73;3.37;;;18.50;99.90;;;;;;4993168;28;20888;-56
2023/07/13 12:44:53;;;;;;;3.57;3.27;;;18.40;99.90;;;;;;4989735;28;20497;-55
2023/07/13 12:47:22;;;;;;;3.50;2.60;;;18.40;99.90;;;;;;4988672;28;21062;-57
2023/07/13 12:49:53;;;;;;;5.60;3.37;;;18.50;99.90;;;;;;4992901;28;20476;-57
2023/07/13 12:52:24;;;;;;;5.50;3.70;;;18.70;99.90;;;;;;4993798;28;20546;-56
2023/07/13 12:54:59;;;;;;;3.70;3.33;;;19.00;99.90;;;;;;4990442;28;20573;-56
2023/07/13 12:57:39;;;;;;;4.37;3.93;;;19.30;99.90;;;;;;4991611;28;20496;-56
2023/07/13 13:00:24;;;;;;;5.73;3.80;;;19.60;99.90;;;;;;4990877;28;20974;-56
2023/07/13 13:02:54;;;;;;;6.10;3.90;;;19.90;99.90;;;;;;4996305;28;20577;-56